createdAt,value
2022-09-24T00:02:14.052Z,99591.94
2022-09-24T00:05:01.969Z,99578.59
2022-09-24T00:07:51.272Z,99594.34
2022-09-24T00:10:39.450Z,99592.75
2022-09-24T00:13:27.934Z,99592.75
2022-09-24T00:16:18.053Z,99592.34
2022-09-24T00:19:06.396Z,99586.03
2022-09-24T00:21:54.327Z,99589.97
2022-09-24T00:25:01.465Z,99595.88
2022-09-24T00:27:49.372Z,99590.38
2022-09-24T00:30:39.495Z,99592.75
2022-09-24T00:33:28.142Z,99584.47
2022-09-24T00:36:16.077Z,99582.09
2022-09-24T00:39:04.612Z,99569.53
2022-09-24T00:41:54.325Z,99570.72
2022-09-24T00:44:54.378Z,99577.38
2022-09-24T00:47:44.823Z,99581.72
2022-09-24T00:50:35.698Z,99575.44
2022-09-24T00:53:45.918Z,99570.31
2022-09-24T00:56:37.469Z,99565.97
2022-09-24T00:59:28.273Z,99553.78
2022-09-24T01:02:16.204Z,99555.34
2022-09-24T01:05:05.341Z,99551.44
2022-09-24T01:07:53.430Z,99543.56
2022-09-24T01:10:56.881Z,99539.63
2022-09-24T01:13:57.753Z,99530.56
2022-09-24T01:16:55.042Z,99534.53
2022-09-24T01:20:00.599Z,99515.22
2022-09-24T01:23:04.504Z,99514.03
2022-09-24T01:26:08.473Z,99530.91
2022-09-24T01:29:06.864Z,99534.03
2022-09-24T01:32:03.816Z,99532.44
2022-09-24T01:34:59.060Z,99522.19
2022-09-24T01:37:53.520Z,99513.91
2022-09-24T01:40:43.138Z,99518.94
2022-09-24T01:43:32.992Z,99525.97
2022-09-24T01:46:22.689Z,99527.06
2022-09-24T01:49:12.070Z,99516.81
2022-09-24T01:52:05.043Z,99514.06
2022-09-24T01:54:55.672Z,99514.75
2022-09-24T01:57:46.375Z,99514.81
2022-09-24T02:00:34.727Z,99522.25
2022-09-24T02:03:29.765Z,99509.31
2022-09-24T02:06:24.157Z,99514.00
2022-09-24T02:09:33.981Z,99506.13
2022-09-24T02:12:29.506Z,99505.25
2022-09-24T02:15:22.017Z,99502.06
2022-09-24T02:18:12.640Z,99489.91
2022-09-24T02:21:02.973Z,99498.13
2022-09-24T02:23:58.531Z,99492.63
2022-09-24T02:26:47.322Z,99502.78
2022-09-24T02:29:35.724Z,99500.38
2022-09-24T02:32:26.895Z,99497.19
2022-09-24T02:35:13.809Z,99492.44
2022-09-24T02:38:06.345Z,99501.78
2022-09-24T02:40:55.728Z,99502.50
2022-09-24T02:43:44.113Z,99492.28
2022-09-24T02:46:32.100Z,99486.75
2022-09-24T02:49:20.033Z,99483.22
2022-09-24T02:52:08.250Z,99483.63
2022-09-24T02:54:56.521Z,99489.91
2022-09-24T02:57:46.363Z,99491.06
2022-09-24T03:00:34.293Z,99487.09
2022-09-24T03:03:22.674Z,99501.19
2022-09-24T03:06:13.442Z,99493.38
2022-09-24T03:09:03.294Z,99494.22
2022-09-24T03:11:51.242Z,99495.00
2022-09-24T03:14:40.509Z,99495.34
2022-09-24T03:17:28.974Z,99491.03
2022-09-24T03:20:17.242Z,99499.69
2022-09-24T03:23:05.414Z,99500.44
2022-09-24T03:25:53.761Z,99491.34
2022-09-24T03:28:41.776Z,99491.34
2022-09-24T03:31:31.064Z,99486.59
2022-09-24T03:34:19.008Z,99479.16
2022-09-24T03:37:07.032Z,99465.72
2022-09-24T03:39:54.992Z,99461.06
2022-09-24T03:42:42.948Z,99463.00
2022-09-24T03:45:30.839Z,99447.31
2022-09-24T03:48:21.336Z,99453.59
2022-09-24T03:51:11.719Z,99447.31
2022-09-24T03:53:59.626Z,99448.94
2022-09-24T03:56:47.509Z,99430.50
2022-09-24T03:59:35.364Z,99433.78
2022-09-24T04:02:23.241Z,99447.94
2022-09-24T04:05:12.478Z,99444.03
2022-09-24T04:08:00.749Z,99382.94
2022-09-24T04:10:49.736Z,99442.06
2022-09-24T04:13:37.626Z,99443.63
2022-09-24T04:16:25.616Z,99439.31
2022-09-24T04:19:15.978Z,99432.94
2022-09-24T04:22:05.209Z,99449.81
2022-09-24T04:24:53.810Z,99456.06
2022-09-24T04:27:41.677Z,99450.13
2022-09-24T04:30:31.667Z,99439.50
2022-09-24T04:33:19.520Z,99447.75
2022-09-24T04:36:07.513Z,99451.69
2022-09-24T04:38:57.435Z,99450.50
2022-09-24T04:41:47.873Z,99437.97
2022-09-24T04:44:35.760Z,99434.06
2022-09-24T04:47:25.833Z,99423.34
2022-09-24T04:50:13.900Z,99432.47
2022-09-24T04:53:02.538Z,99428.56
2022-09-24T04:55:51.809Z,99429.31
2022-09-24T04:58:40.358Z,99440.66
2022-09-24T05:01:28.337Z,99444.19
2022-09-24T05:04:16.408Z,99443.06
2022-09-24T05:07:04.674Z,99443.50
2022-09-24T05:09:52.564Z,99442.41
2022-09-24T05:12:42.297Z,99436.56
2022-09-24T05:15:30.458Z,99438.53
2022-09-24T05:18:18.370Z,99437.38
2022-09-24T05:21:06.674Z,99436.66
2022-09-24T05:23:54.932Z,99435.13
2022-09-24T05:27:00.668Z,99441.41
2022-09-24T05:29:50.237Z,99447.00
2022-09-24T05:32:38.145Z,99445.06
2022-09-24T05:35:26.056Z,99445.91
2022-09-24T05:38:13.962Z,99462.41
2022-09-24T05:41:01.930Z,99453.03
2022-09-24T05:43:50.000Z,99460.13
2022-09-24T05:46:39.287Z,99451.94
2022-09-24T05:49:27.340Z,99455.50
2022-09-24T05:52:15.216Z,99453.19
2022-09-24T05:55:03.116Z,99457.94
2022-09-24T05:57:50.994Z,99462.72
2022-09-24T06:00:38.908Z,99463.13
2022-09-24T06:03:29.571Z,99463.94
2022-09-24T06:05:59.561Z,99473.81
2022-09-24T06:08:27.178Z,99471.47
2022-09-24T06:10:59.314Z,99444.75
2022-09-24T06:13:26.976Z,99479.78
2022-09-24T06:16:00.636Z,99478.63
2022-09-24T06:18:29.750Z,99484.53
2022-09-24T06:21:02.005Z,99493.59
2022-09-24T06:23:30.862Z,99493.59
2022-09-24T06:25:58.577Z,99437.38
2022-09-24T06:28:26.294Z,99498.72
2022-09-24T06:30:54.235Z,99482.16
2022-09-24T06:33:23.339Z,99473.50
2022-09-24T06:35:52.308Z,99474.69
2022-09-24T06:38:20.644Z,99479.00
2022-09-24T06:40:49.241Z,99485.66
2022-09-24T06:43:18.094Z,99498.63
2022-09-24T06:45:46.237Z,99491.53
2022-09-24T06:48:15.027Z,99493.16
2022-09-24T06:50:45.543Z,99499.81
2022-09-24T06:53:14.688Z,99504.09
2022-09-24T06:55:42.561Z,99496.94
2022-09-24T06:58:11.878Z,99492.13
2022-09-24T07:00:40.244Z,99499.81
2022-09-24T07:03:08.938Z,99500.44
2022-09-24T07:05:41.075Z,99501.22
2022-09-24T07:08:11.340Z,99425.41
2022-09-24T07:10:43.468Z,99507.09
2022-09-24T07:13:11.872Z,99502.72
2022-09-24T07:15:39.616Z,99505.88
2022-09-24T07:18:07.440Z,99503.88
2022-09-24T07:20:36.824Z,99505.88
2022-09-24T07:23:05.160Z,99513.78
2022-09-24T07:25:33.293Z,99492.72
2022-09-24T07:28:07.727Z,99518.69
2022-09-24T07:30:36.218Z,99521.00
2022-09-24T07:33:04.767Z,99518.53
2022-09-24T07:35:32.662Z,99529.88
2022-09-24T07:38:02.100Z,99517.53
2022-09-24T07:40:31.086Z,99536.28
2022-09-24T07:43:00.004Z,99540.44
2022-09-24T07:45:31.451Z,99537.59
2022-09-24T07:48:00.568Z,99521.22
2022-09-24T07:50:29.896Z,99538.06
2022-09-24T07:52:57.887Z,99534.09
2022-09-24T07:55:25.995Z,99537.22
2022-09-24T07:57:55.145Z,99540.28
2022-09-24T08:00:24.716Z,99535.00
2022-09-24T08:02:54.056Z,99532.47
2022-09-24T08:05:21.696Z,99532.97
2022-09-24T08:07:53.253Z,99520.53
2022-09-24T08:10:21.262Z,99533.56
2022-09-24T08:12:48.913Z,99544.00
2022-09-24T08:15:16.739Z,99549.75
2022-09-24T08:17:44.546Z,99542.28
2022-09-24T08:20:14.079Z,99545.00
2022-09-24T08:22:41.716Z,99547.31
2022-09-24T08:25:09.493Z,99550.03
2022-09-24T08:27:37.445Z,99546.06
2022-09-24T08:30:05.734Z,99534.47
2022-09-24T08:32:33.564Z,99519.59
2022-09-24T08:35:01.158Z,99519.59
2022-09-24T08:37:31.457Z,99467.00
2022-09-24T08:39:59.064Z,99514.88
2022-09-24T08:42:37.989Z,99533.53
2022-09-24T08:45:24.437Z,99530.56
2022-09-24T08:47:56.560Z,99532.28
2022-09-24T08:50:26.809Z,99537.63
2022-09-24T08:53:04.207Z,99535.94
2022-09-24T08:55:39.030Z,99539.69
2022-09-24T08:58:40.502Z,99529.63
2022-09-24T09:01:22.319Z,99519.56
2022-09-24T09:03:54.936Z,99519.44
2022-09-24T09:06:44.736Z,99517.69
2022-09-24T09:09:19.422Z,99516.91
2022-09-24T09:11:51.222Z,99526.97
2022-09-24T09:14:22.703Z,99534.91
2022-09-24T09:16:53.850Z,99530.56
2022-09-24T09:19:27.560Z,99535.44
2022-09-24T09:21:58.165Z,99540.03
2022-09-24T09:24:36.076Z,99549.59
2022-09-24T09:27:14.607Z,99544.75
2022-09-24T09:29:43.029Z,99547.16
2022-09-24T09:32:23.980Z,99545.06
2022-09-24T09:35:01.844Z,99521.66
2022-09-24T09:37:38.080Z,99546.69
2022-09-24T09:40:27.648Z,99552.88
2022-09-24T09:43:03.890Z,99549.50
2022-09-24T09:45:37.921Z,99540.63
2022-09-24T09:48:06.700Z,99546.66
2022-09-24T09:50:39.184Z,99540.06
2022-09-24T09:53:07.040Z,99533.09
2022-09-24T09:55:38.545Z,99532.34
2022-09-24T09:58:18.231Z,99534.50
2022-09-24T10:00:48.253Z,99536.53
2022-09-24T10:03:25.006Z,99532.06
2022-09-24T10:05:55.814Z,99526.16
2022-09-24T10:08:24.904Z,99526.69
2022-09-24T10:10:58.365Z,99526.84
2022-09-24T10:13:27.071Z,99516.41
2022-09-24T10:15:57.548Z,99534.00
2022-09-24T10:18:32.743Z,99541.25
2022-09-24T10:21:03.219Z,99534.84
2022-09-24T10:23:36.683Z,99537.44
2022-09-24T10:26:09.324Z,99544.44
2022-09-24T10:28:59.637Z,99539.97
2022-09-24T10:31:31.350Z,99536.56
2022-09-24T10:34:01.828Z,99533.03
2022-09-24T10:36:32.488Z,99535.31
2022-09-24T10:39:04.501Z,99533.31
2022-09-24T10:41:33.509Z,99538.44
2022-09-24T10:44:05.337Z,99533.09
2022-09-24T10:46:52.782Z,99519.38
2022-09-24T10:49:31.944Z,99524.72
2022-09-24T10:52:10.655Z,99533.19
2022-09-24T10:54:50.107Z,99512.47
2022-09-24T10:57:31.878Z,99517.44
2022-09-24T11:00:09.340Z,99521.38
2022-09-24T11:02:59.677Z,99520.44
2022-09-24T11:05:32.655Z,99521.84
2022-09-24T11:08:14.600Z,99504.78
2022-09-24T11:10:56.944Z,99504.50
2022-09-24T11:13:34.267Z,99511.28
2022-09-24T11:16:30.406Z,99502.06
2022-09-24T11:19:02.281Z,99502.41
2022-09-24T11:21:47.089Z,99489.59
2022-09-24T11:24:29.744Z,99502.09
2022-09-24T11:27:07.418Z,99497.97
2022-09-24T11:29:48.748Z,99501.84
2022-09-24T11:32:26.321Z,99498.19
2022-09-24T11:35:15.472Z,99516.94
2022-09-24T11:37:54.279Z,99501.94
2022-09-24T11:41:03.092Z,99525.91
2022-09-24T11:43:50.482Z,99507.56
2022-09-24T11:46:30.134Z,99501.31
2022-09-24T11:49:14.224Z,99495.97
2022-09-24T11:51:53.383Z,99492.25
2022-09-24T11:54:27.087Z,99478.22
2022-09-24T11:57:02.040Z,99471.34
2022-09-24T11:59:37.866Z,99483.22
2022-09-24T12:02:13.427Z,99474.47
2022-09-24T12:04:52.565Z,99475.81
2022-09-24T12:07:25.817Z,99478.59
2022-09-24T12:09:59.921Z,99483.56
2022-09-24T12:12:30.219Z,99488.81
2022-09-24T12:15:02.680Z,99477.69
2022-09-24T12:17:38.494Z,99471.66
2022-09-24T12:20:19.414Z,99478.34
2022-09-24T12:22:49.710Z,99468.94
2022-09-24T12:25:17.821Z,99474.03
2022-09-24T12:27:46.660Z,99467.91
2022-09-24T12:30:47.100Z,99469.16
2022-09-24T12:33:23.924Z,99455.16
2022-09-24T12:36:06.033Z,99447.59
2022-09-24T12:38:37.821Z,99451.59
2022-09-24T12:41:28.260Z,99449.22
2022-09-24T12:44:02.766Z,99443.31
2022-09-24T12:46:33.446Z,99449.59
2022-09-24T12:49:02.908Z,99437.94
2022-09-24T12:51:38.557Z,99438.03
2022-09-24T12:54:08.817Z,99447.38
2022-09-24T12:56:36.565Z,99452.00
2022-09-24T12:59:05.502Z,99452.66
2022-09-24T13:01:34.131Z,99421.34
2022-09-24T13:04:06.281Z,99440.06
2022-09-24T13:06:36.603Z,99447.72
2022-09-24T13:09:25.965Z,99444.38
2022-09-24T13:12:03.317Z,99443.19
2022-09-24T13:14:33.377Z,99439.84
2022-09-24T13:17:07.316Z,99420.25
2022-09-24T13:19:41.818Z,99437.59
2022-09-24T13:22:22.701Z,99441.09
2022-09-24T13:24:52.548Z,99442.75
2022-09-24T13:27:37.365Z,99434.22
2022-09-24T13:30:15.387Z,99439.81
2022-09-24T13:32:47.752Z,99443.09
2022-09-24T13:35:22.036Z,99415.47
2022-09-24T13:37:54.648Z,99432.28
2022-09-24T13:40:26.793Z,99436.53
2022-09-24T13:43:01.332Z,99433.63
2022-09-24T13:45:29.216Z,99436.50
2022-09-24T13:47:59.803Z,99435.50
2022-09-24T13:50:32.484Z,99430.06
2022-09-24T13:53:04.569Z,99431.03
2022-09-24T13:55:34.370Z,99439.25
2022-09-24T13:58:02.009Z,99440.66
2022-09-24T14:00:32.133Z,99437.44
2022-09-24T14:03:03.800Z,99439.91
2022-09-24T14:05:36.908Z,99431.19
2022-09-24T14:08:07.428Z,99423.47
2022-09-24T14:10:36.392Z,99417.25
2022-09-24T14:13:17.567Z,99415.53
2022-09-24T14:15:53.252Z,99411.06
2022-09-24T14:18:21.215Z,99416.81
2022-09-24T14:20:56.924Z,99413.19
2022-09-24T14:23:29.422Z,99414.50
2022-09-24T14:25:59.036Z,99412.22
2022-09-24T14:28:28.808Z,99413.41
2022-09-24T14:30:57.179Z,99413.13
2022-09-24T14:33:32.948Z,99378.81
2022-09-24T14:36:03.489Z,99417.50
2022-09-24T14:38:35.903Z,99407.25
2022-09-24T14:41:06.731Z,99406.31
2022-09-24T14:43:43.597Z,99408.72
2022-09-24T14:46:20.043Z,99397.72
2022-09-24T14:48:47.828Z,99395.53
2022-09-24T14:51:25.047Z,99384.94
2022-09-24T14:53:59.220Z,99386.50
2022-09-24T14:56:29.321Z,99380.56
2022-09-24T14:58:57.300Z,99390.63
2022-09-24T15:01:30.819Z,99379.28
2022-09-24T15:04:01.684Z,99387.34
2022-09-24T15:06:33.204Z,99391.69
2022-09-24T15:09:03.366Z,99389.63
2022-09-24T15:11:34.320Z,99388.63
2022-09-24T15:14:12.648Z,99383.81
2022-09-24T15:16:40.519Z,99388.41
2022-09-24T15:19:19.371Z,99395.09
2022-09-24T15:21:49.524Z,99393.31
2022-09-24T15:24:17.606Z,99393.50
2022-09-24T15:26:47.220Z,99392.09
2022-09-24T15:29:24.201Z,99382.16
2022-09-24T15:31:51.909Z,99381.94
2022-09-24T15:34:20.542Z,99384.28
2022-09-24T15:36:51.513Z,99378.47
2022-09-24T15:39:20.355Z,99372.47
2022-09-24T15:41:47.965Z,99383.50
2022-09-24T15:44:21.751Z,99378.59
2022-09-24T15:46:51.010Z,99378.59
2022-09-24T15:49:21.779Z,99378.59
2022-09-24T15:51:51.936Z,99376.91
2022-09-24T15:54:19.968Z,99385.41
2022-09-24T15:56:52.181Z,99381.28
2022-09-24T15:59:20.587Z,99382.03
2022-09-24T16:01:49.827Z,99377.78
2022-09-24T16:04:17.911Z,99381.19
2022-09-24T16:06:45.568Z,99380.03
2022-09-24T16:09:14.594Z,99380.66
2022-09-24T16:11:42.309Z,99374.72
2022-09-24T16:14:10.526Z,99377.19
2022-09-24T16:16:39.346Z,99380.31
2022-09-24T16:19:08.409Z,99373.34
2022-09-24T16:21:36.142Z,99373.22
2022-09-24T16:24:03.764Z,99378.78
2022-09-24T16:26:34.336Z,99380.31
2022-09-24T16:29:03.352Z,99371.38
2022-09-24T16:31:31.353Z,99379.44
2022-09-24T16:33:59.121Z,99388.72
2022-09-24T16:36:26.783Z,99383.75
2022-09-24T16:38:54.476Z,99384.34
2022-09-24T16:41:22.213Z,99386.41
2022-09-24T16:43:56.705Z,99398.16
2022-09-24T16:46:24.670Z,99394.78
2022-09-24T16:48:52.512Z,99395.59
2022-09-24T16:51:20.444Z,99399.56
2022-09-24T16:53:49.101Z,99404.16
2022-09-24T16:56:18.376Z,99375.38
2022-09-24T16:58:47.488Z,99397.75
2022-09-24T17:01:18.151Z,99406.81
2022-09-24T17:03:50.852Z,99404.75
2022-09-24T17:06:19.835Z,99356.91
2022-09-24T17:09:05.530Z,99402.53
2022-09-24T17:11:33.695Z,99399.53
2022-09-24T17:14:01.850Z,99383.47
2022-09-24T17:16:49.592Z,99399.34
2022-09-24T17:19:37.428Z,99412.88
2022-09-24T17:22:25.544Z,99407.44
2022-09-24T17:25:13.438Z,99412.97
2022-09-24T17:28:02.059Z,99408.59
2022-09-24T17:30:52.294Z,99393.41
2022-09-24T17:33:43.762Z,99420.06
2022-09-24T17:36:34.418Z,99419.31
2022-09-24T17:39:22.302Z,99415.38
2022-09-24T17:42:10.432Z,99415.41
2022-09-24T17:44:58.397Z,99416.19
2022-09-24T17:48:00.279Z,99420.53
2022-09-24T17:50:55.351Z,99419.75
2022-09-24T17:53:44.072Z,99425.31
2022-09-24T17:56:34.204Z,99426.53
2022-09-24T17:59:26.401Z,99435.16
2022-09-24T18:02:14.950Z,99443.44
2022-09-24T18:05:02.861Z,99449.09
2022-09-24T18:07:52.110Z,99448.75
2022-09-24T18:10:40.343Z,99458.69
2022-09-24T18:13:28.266Z,99446.13
2022-09-24T18:16:17.723Z,99453.34
2022-09-24T18:19:05.779Z,99452.25
2022-09-24T18:21:54.531Z,99452.34
2022-09-24T18:24:44.463Z,99445.31
2022-09-24T18:27:32.727Z,99433.50
2022-09-24T18:30:20.605Z,99439.78
2022-09-24T18:33:08.627Z,99436.59
2022-09-24T18:35:56.517Z,99427.13
2022-09-24T18:38:45.091Z,99441.28
2022-09-24T18:41:34.716Z,99432.59
2022-09-24T18:44:22.709Z,99434.59
2022-09-24T18:47:14.517Z,99433.00
2022-09-24T18:50:02.445Z,99442.16
2022-09-24T18:52:50.407Z,99442.91
2022-09-24T18:55:40.529Z,99440.56
2022-09-24T18:58:29.767Z,99446.53
2022-09-24T19:01:17.767Z,99452.88
2022-09-24T19:04:07.014Z,99450.13
2022-09-24T19:06:54.960Z,99453.38
2022-09-24T19:09:42.842Z,99451.69
2022-09-24T19:12:31.009Z,99446.19
2022-09-24T19:15:20.320Z,99447.31
2022-09-24T19:18:09.017Z,99452.63
2022-09-24T19:20:57.976Z,99452.72
2022-09-24T19:23:47.846Z,99445.25
2022-09-24T19:26:37.144Z,99453.53
2022-09-24T19:29:25.590Z,99459.47
2022-09-24T19:32:14.915Z,99460.34
2022-09-24T19:35:02.902Z,99478.47
2022-09-24T19:37:50.777Z,99488.66
2022-09-24T19:40:38.772Z,99490.22
2022-09-24T19:43:27.365Z,99496.53
2022-09-24T19:46:16.806Z,99493.44
2022-09-24T19:49:06.812Z,99489.50
2022-09-24T19:51:54.765Z,99501.34
2022-09-24T19:54:44.341Z,99495.03
2022-09-24T19:57:34.810Z,99495.00
2022-09-24T20:00:24.945Z,99499.72
2022-09-24T20:03:13.397Z,99505.22
2022-09-24T20:06:08.124Z,99504.03
2022-09-24T20:08:57.002Z,99514.22
2022-09-24T20:11:45.136Z,99506.66
2022-09-24T20:14:33.868Z,99516.16
2022-09-24T20:17:21.985Z,99504.03
2022-09-24T20:20:10.119Z,99515.84
2022-09-24T20:22:59.418Z,99532.81
2022-09-24T20:26:08.054Z,99537.56
2022-09-24T20:28:56.004Z,99530.44
2022-09-24T20:31:51.649Z,99525.38
2022-09-24T20:34:40.142Z,99533.25
2022-09-24T20:37:28.288Z,99537.97
2022-09-24T20:40:17.807Z,99534.41
2022-09-24T20:43:05.752Z,99535.97
2022-09-24T20:45:53.753Z,99537.56
2022-09-24T20:48:41.691Z,99538.75
2022-09-24T20:51:33.206Z,99534.81
2022-09-24T20:54:21.468Z,99533.66
2022-09-24T20:57:10.683Z,99530.16
2022-09-24T20:59:58.555Z,99518.34
2022-09-24T21:02:46.435Z,99527.78
2022-09-24T21:05:34.354Z,99522.69
2022-09-24T21:08:22.255Z,99522.69
2022-09-24T21:11:11.923Z,99528.59
2022-09-24T21:14:02.749Z,99514.06
2022-09-24T21:16:50.837Z,99515.63
2022-09-24T21:19:38.704Z,99521.97
2022-09-24T21:22:26.630Z,99522.34
2022-09-24T21:25:30.343Z,99522.75
2022-09-24T21:28:22.639Z,99525.91
2022-09-24T21:31:12.185Z,99516.47
2022-09-24T21:34:01.041Z,99507.81
2022-09-24T21:36:49.258Z,99514.91
2022-09-24T21:39:37.118Z,99513.31
2022-09-24T21:42:27.644Z,99509.78
2022-09-24T21:45:15.546Z,99494.84
2022-09-24T21:48:04.933Z,99497.94
2022-09-24T21:50:52.913Z,99503.47
2022-09-24T21:53:41.525Z,99499.13
2022-09-24T21:56:30.482Z,99504.66
2022-09-24T21:59:35.941Z,99499.50
2022-09-24T22:02:23.906Z,99505.81
2022-09-24T22:05:16.459Z,99507.03
2022-09-24T22:08:11.747Z,99504.66
2022-09-24T22:11:04.780Z,99505.44
2022-09-24T22:13:52.835Z,99495.22
2022-09-24T22:16:41.402Z,99489.69
2022-09-24T22:19:29.325Z,99490.47
2022-09-24T22:22:18.571Z,99491.66
2022-09-24T22:25:07.514Z,99493.63
2022-09-24T22:27:55.383Z,99484.16
2022-09-24T22:30:44.163Z,99495.59
2022-09-24T22:33:50.130Z,99492.81
2022-09-24T22:36:38.467Z,99481.81
2022-09-24T22:39:27.676Z,99482.97
2022-09-24T22:42:15.599Z,99478.34
2022-09-24T22:45:03.554Z,99482.28
2022-09-24T22:47:52.618Z,99486.56
2022-09-24T22:50:40.480Z,99490.47
2022-09-24T22:53:28.565Z,99487.81
2022-09-24T22:56:19.977Z,99482.78
2022-09-24T22:59:07.900Z,99482.00
2022-09-24T23:01:55.798Z,99479.25
2022-09-24T23:04:43.923Z,99475.66
2022-09-24T23:07:32.494Z,99486.31
2022-09-24T23:10:20.441Z,99487.47
2022-09-24T23:13:09.680Z,99492.19
2022-09-24T23:15:57.580Z,99486.69
2022-09-24T23:18:47.182Z,99483.16
2022-09-24T23:21:36.728Z,99476.81
2022-09-24T23:24:24.658Z,99485.50
2022-09-24T23:27:12.639Z,99480.78
2022-09-24T23:30:01.837Z,99486.69
2022-09-24T23:32:49.782Z,99484.28
2022-09-24T23:35:37.665Z,99476.00
2022-09-24T23:38:25.646Z,99484.22
2022-09-24T23:41:14.886Z,99482.59
2022-09-24T23:44:03.409Z,99480.59
2022-09-24T23:46:52.711Z,99477.84
2022-09-24T23:49:40.604Z,99479.84
2022-09-24T23:52:28.467Z,99473.94
2022-09-24T23:55:16.691Z,99478.28
2022-09-24T23:58:04.747Z,99466.09
